Terminal Aerodrome Forecast
Issued by NWS

Home | Current Version | Previous Version | Text Only | Print | Product List | Glossary On
Versions: 1 2 3 4 5 6 7 8 9 10 11 12 13 14
027
FTUS43 KDTX 251123
TAFMBS
TAF
KMBS 251123Z 2512/2612 23008KT P6SM SCT060 SCT250
     FM251700 VRB03KT P6SM BKN060
     FM252100 05008KT P6SM BKN060 OVC150 PROB30 2521/2524 3SM TSRA
      OVC035CB
     FM260100 05005KT P6SM BKN060 OVC150
     FM260700 20005KT 5SM -SHRA BR OVC060=

USA.gov is the U.S. government's official web portal to all federal, state and local government web resources and services.